Time;durP1;ratioP1;P1;durP2;ratioP2;P2;SDS_P1;SDS_P2;PMS_P1;PMS_P2;Temp;Humidity;BMP_temperature;BMP_pressure;BME280_temperature;BME280_humidity;BME280_pressure;Samples;Min_cycle;Max_cycle;Signal;HPM_P1;HPM_P2
2022/08/09 00:02:07;;;;;;;2.10;2.00;;;21.10;46.20;;;;;;5058834;28;20758;-51
2022/08/09 00:04:33;;;;;;;2.33;2.13;;;21.00;46.20;;;;;;5058706;28;20419;-52
2022/08/09 00:06:59;;;;;;;2.60;2.00;;;21.10;46.30;;;;;;5058407;28;20543;-52
2022/08/09 00:09:25;;;;;;;2.47;2.10;;;21.00;46.30;;;;;;5058766;28;20419;-52
2022/08/09 00:11:51;;;;;;;2.80;2.30;;;21.00;46.50;;;;;;5057888;28;20433;-50
2022/08/09 00:14:17;;;;;;;2.60;2.07;;;20.90;46.50;;;;;;5058197;28;20218;-52
2022/08/09 00:16:43;;;;;;;2.50;1.93;;;20.90;46.70;;;;;;5057283;28;20185;-53
2022/08/09 00:19:09;;;;;;;2.77;2.20;;;20.90;46.90;;;;;;5057575;28;20415;-53
2022/08/09 00:21:35;;;;;;;2.20;2.00;;;20.90;46.80;;;;;;5058873;28;20427;-49
2022/08/09 00:24:01;;;;;;;3.47;2.20;;;20.90;46.90;;;;;;5058558;28;20468;-51
2022/08/09 00:26:28;;;;;;;2.50;2.30;;;20.80;46.90;;;;;;5057762;28;20743;-50
2022/08/09 00:28:53;;;;;;;2.60;1.90;;;20.80;47.00;;;;;;5058011;28;20275;-52
2022/08/09 00:31:20;;;;;;;3.47;2.30;;;20.80;47.00;;;;;;5057210;28;20532;-50
2022/08/09 00:33:46;;;;;;;4.50;2.30;;;20.80;47.20;;;;;;5056874;28;20210;-50
2022/08/09 00:36:12;;;;;;;2.90;2.70;;;20.80;47.20;;;;;;5057435;28;20466;-51
2022/08/09 00:38:38;;;;;;;4.60;2.60;;;20.80;47.30;;;;;;5056891;28;20407;-53
2022/08/09 00:41:04;;;;;;;2.83;2.40;;;20.80;47.80;;;;;;5056216;28;20327;-50
2022/08/09 00:43:30;;;;;;;3.57;2.80;;;20.70;47.50;;;;;;5057988;28;20535;-49
2022/08/09 00:45:56;;;;;;;3.70;2.27;;;20.70;47.60;;;;;;5057219;28;20806;-48
2022/08/09 00:48:22;;;;;;;3.00;2.70;;;20.70;47.80;;;;;;5057473;28;20238;-49
2022/08/09 00:50:47;;;;;;;5.67;2.27;;;20.70;47.80;;;;;;5056938;28;20187;-50
2022/08/09 00:53:13;;;;;;;4.97;2.33;;;20.50;48.10;;;;;;5057183;28;20470;-51
2022/08/09 00:55:39;;;;;;;3.47;2.77;;;20.50;48.50;;;;;;5057645;28;20166;-50
2022/08/09 00:58:05;;;;;;;4.20;3.23;;;20.50;48.50;;;;;;5057677;28;20184;-50
2022/08/09 01:00:31;;;;;;;3.60;2.83;;;20.40;48.60;;;;;;5057481;28;20899;-53
2022/08/09 01:03:16;;;;;;;4.93;2.60;;;20.30;48.80;;;;;;5057777;28;20632;-50
2022/08/09 01:05:52;;;;;;;4.20;2.40;;;20.20;49.00;;;;;;5057863;28;20743;-49
2022/08/09 01:08:41;;;;;;;2.83;2.20;;;20.10;49.20;;;;;;5057007;28;20411;-53
2022/08/09 01:11:35;;;;;;;2.97;2.70;;;20.00;49.30;;;;;;5057231;28;20524;-50
2022/08/09 01:14:09;;;;;;;3.77;2.60;;;19.80;49.30;;;;;;5057156;28;20897;-48
2022/08/09 01:16:38;;;;;;;2.90;2.17;;;19.70;49.50;;;;;;5056417;28;20473;-48
2022/08/09 01:19:30;;;;;;;2.83;2.50;;;19.60;49.70;;;;;;5056774;28;20424;-48
2022/08/09 01:22:22;;;;;;;4.23;2.60;;;19.60;50.00;;;;;;5057989;28;20426;-52
2022/08/09 01:25:06;;;;;;;2.20;2.00;;;19.60;50.00;;;;;;5047049;28;20428;-50
2022/08/09 01:27:33;;;;;;;3.53;2.50;;;19.60;50.00;;;;;;5057855;28;20437;-48
2022/08/09 01:30:05;;;;;;;2.30;2.10;;;19.50;50.00;;;;;;5058395;28;20479;-50
2022/08/09 01:32:37;;;;;;;3.03;2.23;;;19.50;50.10;;;;;;5059675;28;20436;-49
2022/08/09 01:35:06;;;;;;;2.43;2.23;;;19.60;50.10;;;;;;5059360;28;20498;-49
2022/08/09 01:37:33;;;;;;;2.60;2.40;;;19.60;50.10;;;;;;5059392;28;20435;-49
2022/08/09 01:40:01;;;;;;;3.47;2.40;;;19.70;50.10;;;;;;5060168;28;20704;-50
2022/08/09 01:42:28;;;;;;;2.53;2.20;;;19.70;50.20;;;;;;5060138;28;20525;-51
2022/08/09 01:44:54;;;;;;;3.20;2.30;;;19.70;50.20;;;;;;5060535;28;20423;-50
2022/08/09 01:47:20;;;;;;;3.90;2.30;;;19.70;50.20;;;;;;5061673;28;20543;-49
2022/08/09 01:49:46;;;;;;;2.60;2.40;;;19.60;50.20;;;;;;5060618;28;20518;-50
2022/08/09 01:53:01;;;;;;;3.30;2.63;;;19.60;50.30;;;;;;5061305;28;20522;-52
2022/08/09 01:55:28;;;;;;;2.63;2.43;;;19.70;50.40;;;;;;5061456;28;20210;-49
2022/08/09 01:57:55;;;;;;;2.20;2.00;;;19.70;50.40;;;;;;5059899;28;20494;-50
2022/08/09 02:00:20;;;;;;;2.97;2.77;;;19.70;50.40;;;;;;5060840;28;20414;-48
2022/08/09 02:02:49;;;;;;;2.90;2.30;;;19.60;50.50;;;;;;5061253;28;20526;-48
2022/08/09 02:05:18;;;;;;;2.40;2.20;;;19.50;50.50;;;;;;5061008;28;20468;-48
2022/08/09 02:07:53;;;;;;;3.60;2.70;;;19.50;50.80;;;;;;5060807;28;20527;-51
2022/08/09 02:10:21;;;;;;;2.40;2.10;;;19.40;50.80;;;;;;5061224;28;20730;-51
2022/08/09 02:12:47;;;;;;;2.97;2.20;;;19.40;51.20;;;;;;5059945;28;20430;-50
2022/08/09 02:15:17;;;;;;;2.90;2.60;;;19.40;51.10;;;;;;5060991;28;20463;-49
2022/08/09 02:17:44;;;;;;;2.50;2.30;;;19.50;51.20;;;;;;5060013;28;20191;-49
2022/08/09 02:20:11;;;;;;;2.60;2.37;;;19.40;51.20;;;;;;5060742;28;20455;-49
2022/08/09 02:22:53;;;;;;;3.03;2.40;;;19.30;51.30;;;;;;5059943;28;20444;-52
2022/08/09 02:25:33;;;;;;;2.50;2.30;;;19.30;51.60;;;;;;5060064;28;20422;-49
2022/08/09 02:28:06;;;;;;;2.30;2.10;;;19.20;51.70;;;;;;5060399;28;20533;-55
2022/08/09 02:30:40;;;;;;;2.60;2.40;;;19.20;51.80;;;;;;5059354;28;20774;-48
2022/08/09 02:33:08;;;;;;;3.03;2.23;;;19.10;51.90;;;;;;5057986;28;20520;-51
2022/08/09 02:35:36;;;;;;;2.53;2.33;;;19.10;52.50;;;;;;5057426;28;20458;-48
2022/08/09 02:38:02;;;;;;;3.70;2.77;;;19.20;52.20;;;;;;5058800;28;20479;-48
2022/08/09 02:40:28;;;;;;;2.50;2.30;;;19.20;52.00;;;;;;5069149;28;20856;-51
2022/08/09 02:42:55;;;;;;;2.87;2.60;;;19.20;52.20;;;;;;5078679;28;20432;-48
2022/08/09 02:45:30;;;;;;;3.30;2.33;;;19.10;52.30;;;;;;5079016;28;20878;-48
2022/08/09 02:48:04;;;;;;;3.00;2.57;;;19.00;52.40;;;;;;5078166;28;20435;-50
2022/08/09 02:50:40;;;;;;;3.17;2.97;;;19.00;52.70;;;;;;5079345;28;20420;-49
2022/08/09 02:53:27;;;;;;;2.83;2.60;;;19.00;52.80;;;;;;5079307;28;20413;-50
2022/08/09 02:55:57;;;;;;;2.33;2.13;;;19.00;52.80;;;;;;5079172;28;20418;-51
2022/08/09 02:58:25;;;;;;;2.30;2.10;;;19.00;52.90;;;;;;5080208;28;20433;-49
2022/08/09 03:00:52;;;;;;;2.50;2.30;;;19.00;52.90;;;;;;5080413;28;20529;-51
2022/08/09 03:03:18;;;;;;;2.70;2.50;;;19.00;53.00;;;;;;5078755;28;20434;-50
2022/08/09 03:05:44;;;;;;;2.63;2.43;;;18.90;52.90;;;;;;5079017;28;20464;-49
2022/08/09 03:08:11;;;;;;;2.40;2.20;;;18.90;53.10;;;;;;5078817;28;20427;-51
2022/08/09 03:10:37;;;;;;;2.60;2.40;;;18.80;53.20;;;;;;5078917;28;20690;-49
2022/08/09 03:13:03;;;;;;;2.43;2.23;;;18.70;53.20;;;;;;5078145;28;20434;-49
2022/08/09 03:15:29;;;;;;;3.60;2.63;;;18.70;53.30;;;;;;5072353;28;20256;-50
2022/08/09 03:17:55;;;;;;;2.93;2.73;;;18.70;53.60;;;;;;5080051;28;20888;-50
2022/08/09 03:20:22;;;;;;;2.83;2.60;;;18.60;53.50;;;;;;5079682;28;20408;-49
2022/08/09 03:22:48;;;;;;;3.23;2.50;;;18.70;53.60;;;;;;5077530;28;20445;-49
2022/08/09 03:25:14;;;;;;;2.60;2.40;;;18.80;53.60;;;;;;5078471;28;20901;-51
2022/08/09 03:27:42;;;;;;;3.03;2.77;;;18.80;53.60;;;;;;5079447;28;20528;-51
2022/08/09 03:30:10;;;;;;;2.80;2.53;;;18.80;53.50;;;;;;5074992;28;20666;-48
2022/08/09 03:32:36;;;;;;;2.97;2.67;;;18.80;53.50;;;;;;5058518;28;20453;-48
2022/08/09 03:35:03;;;;;;;2.60;2.27;;;18.80;53.70;;;;;;5058095;28;20465;-48
2022/08/09 03:37:28;;;;;;;2.37;2.17;;;18.80;53.70;;;;;;5059270;28;20706;-47
2022/08/09 03:39:54;;;;;;;2.57;2.37;;;18.80;53.80;;;;;;5058224;28;20413;-49
2022/08/09 03:42:20;;;;;;;3.03;2.73;;;18.80;53.80;;;;;;5058941;28;20558;-48
2022/08/09 03:44:45;;;;;;;3.10;2.90;;;18.80;53.90;;;;;;5058703;28;20176;-49
2022/08/09 03:47:11;;;;;;;2.80;2.60;;;18.80;54.00;;;;;;5064201;28;20187;-49
2022/08/09 03:49:37;;;;;;;3.47;2.60;;;18.80;54.40;;;;;;5059199;28;20192;-48
2022/08/09 03:52:04;;;;;;;2.87;2.67;;;18.80;54.10;;;;;;5058022;28;20195;-49
2022/08/09 03:54:36;;;;;;;3.30;3.07;;;18.70;54.20;;;;;;5057910;28;20461;-53
2022/08/09 03:57:05;;;;;;;3.00;2.70;;;18.60;54.40;;;;;;5058478;28;20531;-52
2022/08/09 03:59:31;;;;;;;3.77;2.97;;;18.60;54.60;;;;;;5058547;28;20452;-52
2022/08/09 04:01:57;;;;;;;3.30;3.00;;;18.60;54.90;;;;;;5060051;28;20440;-50
2022/08/09 04:04:27;;;;;;;3.17;2.70;;;18.60;55.00;;;;;;5059899;28;20421;-50
2022/08/09 04:06:53;;;;;;;4.13;3.60;;;18.50;55.10;;;;;;5058595;28;20529;-50
2022/08/09 04:09:19;;;;;;;3.13;2.93;;;18.50;55.30;;;;;;5058757;28;20512;-50
2022/08/09 04:12:10;;;;;;;3.10;2.80;;;18.50;55.30;;;;;;5058579;28;20187;-50
2022/08/09 04:14:39;;;;;;;3.30;3.00;;;18.50;55.40;;;;;;5058596;28;20287;-51
2022/08/09 04:17:05;;;;;;;3.63;3.33;;;18.50;55.40;;;;;;5057723;28;20425;-49
2022/08/09 04:19:31;;;;;;;3.83;3.53;;;18.50;55.40;;;;;;5061963;28;20427;-49
2022/08/09 04:21:57;;;;;;;3.60;3.30;;;18.50;55.50;;;;;;5057287;28;20731;-50
2022/08/09 04:24:24;;;;;;;3.10;2.90;;;18.60;55.60;;;;;;5057229;28;20293;-50
2022/08/09 04:26:50;;;;;;;3.20;2.90;;;18.50;55.60;;;;;;5057304;28;20266;-49
2022/08/09 04:29:15;;;;;;;3.80;3.50;;;18.60;55.50;;;;;;5057157;28;20478;-52
2022/08/09 04:31:41;;;;;;;3.20;3.00;;;18.60;55.60;;;;;;5057396;28;20453;-52
2022/08/09 04:34:07;;;;;;;3.50;3.20;;;18.60;55.60;;;;;;5060374;28;20297;-52
2022/08/09 04:36:32;;;;;;;3.30;3.00;;;18.70;55.70;;;;;;5060001;28;20359;-55
2022/08/09 04:39:00;;;;;;;5.40;3.03;;;18.70;55.60;;;;;;5088978;28;20179;-52
2022/08/09 04:41:26;;;;;;;3.93;3.60;;;18.70;55.70;;;;;;5097246;28;20186;-51
2022/08/09 04:43:52;;;;;;;5.07;3.27;;;18.70;55.60;;;;;;5098038;28;20450;-52
2022/08/09 04:46:18;;;;;;;3.67;3.37;;;18.80;55.70;;;;;;5098111;28;20760;-51
2022/08/09 04:48:43;;;;;;;3.97;3.60;;;18.80;55.70;;;;;;5098005;28;20173;-53
2022/08/09 04:51:10;;;;;;;3.90;3.60;;;18.80;55.60;;;;;;5075708;28;20187;-51
2022/08/09 04:53:35;;;;;;;5.03;3.77;;;18.80;55.70;;;;;;5057170;28;20211;-50
2022/08/09 04:56:01;;;;;;;3.40;3.10;;;18.80;55.70;;;;;;5057159;28;20431;-54
2022/08/09 04:58:27;;;;;;;4.33;3.93;;;18.80;55.80;;;;;;5056681;28;20178;-53
2022/08/09 05:00:54;;;;;;;3.63;3.33;;;18.90;55.90;;;;;;5057334;28;20224;-56
2022/08/09 05:03:20;;;;;;;3.50;2.87;;;18.80;55.90;;;;;;5057392;28;20412;-55
2022/08/09 05:05:47;;;;;;;3.10;2.90;;;18.90;55.90;;;;;;5073943;28;20427;-56
2022/08/09 05:08:13;;;;;;;5.63;3.40;;;18.80;55.90;;;;;;5073390;28;20427;-55
2022/08/09 05:10:39;;;;;;;3.70;3.40;;;18.80;56.10;;;;;;5077630;28;20420;-53
2022/08/09 05:13:04;;;;;;;3.23;2.93;;;18.80;56.10;;;;;;5076898;28;20443;-57
2022/08/09 05:15:30;;;;;;;3.87;3.57;;;18.90;56.20;;;;;;5076942;28;20174;-55
2022/08/09 05:17:56;;;;;;;4.90;4.50;;;18.90;56.20;;;;;;5076208;28;20448;-51
2022/08/09 05:20:24;;;;;;;4.37;3.73;;;18.90;56.20;;;;;;5076322;28;20439;-52
2022/08/09 05:22:52;;;;;;;3.50;3.20;;;18.80;56.20;;;;;;5071711;28;20423;-54
2022/08/09 05:25:18;;;;;;;3.43;3.03;;;18.80;56.40;;;;;;5054883;28;20422;-55
2022/08/09 05:27:44;;;;;;;3.27;2.97;;;18.90;56.60;;;;;;5055700;28;20529;-52
2022/08/09 05:30:10;;;;;;;3.73;3.33;;;18.90;56.50;;;;;;5056356;28;20571;-54
2022/08/09 05:32:35;;;;;;;3.30;3.00;;;19.00;56.40;;;;;;5056346;28;20193;-55
2022/08/09 05:35:01;;;;;;;3.37;3.07;;;19.00;56.20;;;;;;5056189;28;20535;-52
2022/08/09 05:37:27;;;;;;;3.53;3.30;;;19.10;56.10;;;;;;5055655;28;20190;-53
2022/08/09 05:39:52;;;;;;;4.33;3.40;;;19.20;55.90;;;;;;5060693;28;20171;-51
2022/08/09 05:42:18;;;;;;;4.17;3.80;;;19.30;55.90;;;;;;5055556;28;20497;-55
2022/08/09 05:44:44;;;;;;;4.27;3.80;;;19.30;55.80;;;;;;5056606;28;20214;-52
2022/08/09 05:47:09;;;;;;;3.57;3.27;;;19.40;55.70;;;;;;5056694;28;20649;-52
2022/08/09 05:49:35;;;;;;;4.03;3.63;;;19.40;55.50;;;;;;5057168;28;20244;-53
2022/08/09 05:52:01;;;;;;;3.67;3.37;;;19.50;55.40;;;;;;5062892;28;20638;-56
2022/08/09 05:54:27;;;;;;;3.40;3.10;;;19.60;55.40;;;;;;5076712;28;20650;-54
2022/08/09 05:56:52;;;;;;;4.03;3.63;;;19.60;55.30;;;;;;5059872;28;20242;-54
2022/08/09 05:59:20;;;;;;;3.80;3.50;;;19.70;55.20;;;;;;5075637;28;20282;-51
2022/08/09 06:01:46;;;;;;;4.23;3.83;;;19.80;55.20;;;;;;5075223;28;20267;-52
2022/08/09 06:04:12;;;;;;;4.07;3.67;;;19.90;55.20;;;;;;5075507;28;20586;-51
2022/08/09 06:06:38;;;;;;;3.67;3.37;;;20.00;55.10;;;;;;5071741;28;20447;-54
2022/08/09 06:09:04;;;;;;;4.80;3.73;;;20.10;55.20;;;;;;5074524;28;20259;-52
2022/08/09 06:11:30;;;;;;;6.27;3.43;;;20.10;55.40;;;;;;5068726;28;20877;-54
2022/08/09 06:13:56;;;;;;;3.80;3.40;;;20.20;55.00;;;;;;5073609;28;20477;-52
2022/08/09 06:16:22;;;;;;;5.67;3.53;;;20.30;54.90;;;;;;5076903;28;20188;-54
2022/08/09 06:18:48;;;;;;;3.60;3.33;;;20.40;54.90;;;;;;5077695;28;20183;-52
2022/08/09 06:21:14;;;;;;;3.77;3.47;;;20.50;54.60;;;;;;5078332;28;20721;-52
2022/08/09 06:23:39;;;;;;;6.03;4.50;;;20.70;54.80;;;;;;5077274;28;20427;-53
2022/08/09 06:26:05;;;;;;;4.37;3.97;;;20.80;54.80;;;;;;5077529;28;20432;-53
2022/08/09 06:28:31;;;;;;;4.73;3.80;;;20.90;55.10;;;;;;5073621;28;20232;-54
2022/08/09 06:30:56;;;;;;;4.50;3.37;;;21.00;55.10;;;;;;5077866;28;20674;-52
2022/08/09 06:33:23;;;;;;;3.87;3.57;;;21.10;54.90;;;;;;5073552;28;20205;-55
2022/08/09 06:35:49;;;;;;;4.07;3.77;;;21.20;55.00;;;;;;5070251;28;20181;-55
2022/08/09 06:38:16;;;;;;;3.80;3.50;;;21.40;54.50;;;;;;5070119;28;20416;-53
2022/08/09 06:40:42;;;;;;;7.63;4.40;;;21.50;54.10;;;;;;5078892;28;20168;-52
2022/08/09 06:43:08;;;;;;;5.10;4.00;;;21.50;54.00;;;;;;5075990;28;20414;-51
2022/08/09 06:45:33;;;;;;;3.83;3.53;;;21.60;53.90;;;;;;5074188;28;20177;-52
2022/08/09 06:47:59;;;;;;;4.13;3.70;;;21.60;53.90;;;;;;5077739;28;20181;-51
2022/08/09 06:50:24;;;;;;;4.60;3.80;;;21.70;53.90;;;;;;5076133;28;20237;-52
2022/08/09 06:52:50;;;;;;;4.13;3.83;;;21.90;53.90;;;;;;5077605;28;20264;-56
2022/08/09 06:55:18;;;;;;;3.63;3.20;;;22.00;53.90;;;;;;5077502;28;20200;-52
2022/08/09 06:57:44;;;;;;;6.60;4.17;;;22.10;53.80;;;;;;5077260;28;20180;-53
2022/08/09 07:00:12;;;;;;;4.60;3.43;;;22.20;53.60;;;;;;5071339;28;20424;-52
2022/08/09 07:02:37;;;;;;;8.03;3.87;;;22.30;53.50;;;;;;5057705;28;20239;-52
2022/08/09 07:05:03;;;;;;;5.20;3.50;;;22.50;53.10;;;;;;5058507;28;20419;-52
2022/08/09 07:07:29;;;;;;;3.40;3.10;;;22.70;52.80;;;;;;5057391;28;20427;-56
2022/08/09 07:09:55;;;;;;;4.60;4.20;;;22.90;52.70;;;;;;5057824;28;20421;-54
2022/08/09 07:12:21;;;;;;;3.97;3.07;;;23.10;52.60;;;;;;5056997;28;20272;-55
2022/08/09 07:14:47;;;;;;;4.13;3.73;;;23.30;52.40;;;;;;5057887;28;20262;-55
2022/08/09 07:17:13;;;;;;;5.30;3.57;;;23.40;51.80;;;;;;5062060;28;20720;-53
2022/08/09 07:19:39;;;;;;;5.70;3.80;;;23.60;51.60;;;;;;5055543;28;20501;-54
2022/08/09 07:22:05;;;;;;;3.83;3.43;;;23.80;50.70;;;;;;5056511;28;20176;-55
2022/08/09 07:24:31;;;;;;;4.00;3.70;;;23.90;51.00;;;;;;5056445;28;20182;-40
2022/08/09 07:26:57;;;;;;;6.93;4.10;;;24.00;51.40;;;;;;5055383;28;20424;-41
2022/08/09 07:29:23;;;;;;;5.30;4.80;;;24.10;50.00;;;;;;5056647;28;20790;-42
2022/08/09 07:31:49;;;;;;;5.10;3.90;;;24.10;49.30;;;;;;5058365;28;20484;-42
2022/08/09 07:34:15;;;;;;;4.37;3.77;;;24.00;49.50;;;;;;5059234;28;20560;-40
2022/08/09 07:36:41;;;;;;;5.00;4.07;;;23.80;49.60;;;;;;5056971;28;20189;-41
2022/08/09 07:39:07;;;;;;;4.20;3.90;;;23.70;49.90;;;;;;5059761;28;20545;-41
2022/08/09 07:41:33;;;;;;;4.17;3.87;;;23.80;50.20;;;;;;5057301;28;20181;-41
2022/08/09 07:43:58;;;;;;;3.70;3.40;;;23.80;50.10;;;;;;5058771;28;20274;-42
2022/08/09 07:46:24;;;;;;;3.93;3.53;;;24.10;50.20;;;;;;5060583;28;20209;-41
2022/08/09 07:48:50;;;;;;;4.07;3.70;;;24.50;50.20;;;;;;5064809;28;20181;-42
2022/08/09 07:51:16;;;;;;;4.33;4.03;;;24.90;49.90;;;;;;5059821;28;20246;-40
2022/08/09 07:53:41;;;;;;;5.20;4.67;;;25.20;48.20;;;;;;5056515;28;20213;-41
2022/08/09 07:56:07;;;;;;;3.70;3.40;;;25.50;48.70;;;;;;5056611;28;20426;-41
2022/08/09 07:58:33;;;;;;;4.30;3.63;;;25.80;48.00;;;;;;5056671;28;20235;-42
2022/08/09 08:00:58;;;;;;;3.30;3.10;;;26.20;47.50;;;;;;5056598;28;20275;-43
2022/08/09 08:03:24;;;;;;;3.50;3.20;;;26.40;46.40;;;;;;5056829;28;20177;-41
2022/08/09 08:05:50;;;;;;;4.37;3.97;;;26.70;46.90;;;;;;5071222;28;20284;-40
2022/08/09 08:08:16;;;;;;;3.87;3.50;;;27.10;46.40;;;;;;5075953;28;20200;-43
2022/08/09 08:10:42;;;;;;;3.50;3.20;;;27.40;44.60;;;;;;5077856;28;20476;-41
2022/08/09 08:13:08;;;;;;;4.50;4.10;;;27.40;44.80;;;;;;5075517;28;20177;-41
2022/08/09 08:15:35;;;;;;;10.67;3.90;;;27.50;44.20;;;;;;5078137;28;20895;-43
2022/08/09 08:18:01;;;;;;;5.03;3.83;;;27.60;44.10;;;;;;5077619;28;20173;-41
2022/08/09 08:20:29;;;;;;;7.23;4.20;;;27.60;44.50;;;;;;5077130;28;20424;-42
2022/08/09 08:22:56;;;;;;;4.63;4.13;;;27.60;43.70;;;;;;5067698;28;20548;-41
2022/08/09 08:25:22;;;;;;;5.17;3.67;;;27.60;44.20;;;;;;5075298;28;20432;-43
2022/08/09 08:27:47;;;;;;;3.87;3.47;;;27.70;43.40;;;;;;5077194;28;20439;-42
2022/08/09 08:30:16;;;;;;;4.80;4.23;;;27.90;44.20;;;;;;5076951;28;20466;-43
2022/08/09 08:32:42;;;;;;;4.47;3.07;;;28.10;43.20;;;;;;5077243;28;20184;-41
2022/08/09 08:35:08;;;;;;;4.03;3.60;;;28.20;42.90;;;;;;5076251;28;20904;-41
2022/08/09 08:37:34;;;;;;;4.47;3.80;;;28.40;42.70;;;;;;5074114;28;20268;-42
2022/08/09 08:40:00;;;;;;;4.33;3.93;;;28.60;43.10;;;;;;5076489;28;20173;-41
2022/08/09 08:42:26;;;;;;;4.53;3.20;;;28.90;42.90;;;;;;5075984;28;20500;-40
2022/08/09 08:44:58;;;;;;;6.43;3.80;;;29.10;42.50;;;;;;5076353;28;20193;-42
2022/08/09 08:47:25;;;;;;;3.70;3.40;;;29.10;41.60;;;;;;5066745;28;20448;-46
2022/08/09 08:49:52;;;;;;;4.03;3.30;;;29.10;41.50;;;;;;5075660;28;20965;-41
2022/08/09 08:52:20;;;;;;;3.33;3.13;;;28.60;41.10;;;;;;5070759;28;20432;-43
2022/08/09 08:54:46;;;;;;;4.40;3.70;;;28.50;41.80;;;;;;5057370;28;20456;-44
2022/08/09 08:57:12;;;;;;;5.13;3.60;;;28.30;41.50;;;;;;5071391;28;20459;-41
2022/08/09 08:59:38;;;;;;;3.57;3.27;;;28.20;41.90;;;;;;5075273;28;20418;-42
2022/08/09 09:02:04;;;;;;;3.50;2.67;;;28.40;43.10;;;;;;5077322;28;20174;-42
2022/08/09 09:04:31;;;;;;;3.83;3.50;;;28.50;42.10;;;;;;5077178;28;20375;-41
2022/08/09 09:07:01;;;;;;;4.93;3.43;;;28.70;42.00;;;;;;5066658;28;20193;-44
2022/08/09 09:09:28;;;;;;;7.10;4.13;;;28.70;41.10;;;;;;5065235;28;20426;-42
2022/08/09 09:11:55;;;;;;;3.93;3.53;;;28.40;41.20;;;;;;5075576;28;20462;-41
2022/08/09 09:14:25;;;;;;;4.30;3.77;;;28.00;41.60;;;;;;5074890;28;20900;-41
2022/08/09 09:16:50;;;;;;;4.03;3.70;;;27.70;41.50;;;;;;5072771;28;20486;-43
2022/08/09 09:19:16;;;;;;;3.80;3.40;;;27.50;42.10;;;;;;5064938;28;20458;-41
2022/08/09 09:21:58;;;;;;;3.53;3.23;;;27.40;42.80;;;;;;5076303;28;20188;-43
2022/08/09 09:24:48;;;;;;;3.50;3.27;;;27.70;43.30;;;;;;5073478;28;20167;-42
2022/08/09 09:27:17;;;;;;;3.80;3.50;;;28.40;43.20;;;;;;5055976;28;20432;-41
2022/08/09 09:29:44;;;;;;;3.40;3.10;;;29.20;41.90;;;;;;5055593;28;20648;-41
2022/08/09 09:32:10;;;;;;;3.90;3.60;;;29.50;40.00;;;;;;5054817;28;20715;-41
2022/08/09 09:34:38;;;;;;;3.60;3.30;;;29.90;39.20;;;;;;5056847;28;20491;-43
2022/08/09 09:37:05;;;;;;;4.77;3.70;;;30.00;39.80;;;;;;5055420;28;20494;-42
2022/08/09 09:39:32;;;;;;;6.00;3.30;;;30.20;38.50;;;;;;5066195;28;20428;-41
2022/08/09 09:41:58;;;;;;;3.70;3.40;;;30.60;38.90;;;;;;5062701;28;20468;-40
2022/08/09 09:44:28;;;;;;;5.37;3.70;;;31.00;38.80;;;;;;5053546;28;20421;-42
2022/08/09 09:47:02;;;;;;;3.53;3.23;;;31.50;37.70;;;;;;5054477;28;20446;-43
2022/08/09 09:49:29;;;;;;;3.70;3.40;;;31.50;37.00;;;;;;5054761;28;20420;-43
2022/08/09 09:52:07;;;;;;;4.60;3.40;;;31.60;37.10;;;;;;5058276;28;20441;-41
2022/08/09 09:54:38;;;;;;;4.00;3.60;;;31.80;37.10;;;;;;5064585;28;20469;-41
2022/08/09 09:57:22;;;;;;;4.77;3.43;;;32.20;36.60;;;;;;5073121;28;20486;-42
2022/08/09 09:59:53;;;;;;;3.70;3.40;;;32.80;36.30;;;;;;5079375;28;20396;-44
2022/08/09 10:02:20;;;;;;;5.47;3.60;;;33.40;35.50;;;;;;5079181;28;20429;-41
2022/08/09 10:05:05;;;;;;;3.80;3.40;;;33.00;34.70;;;;;;5079381;28;20412;-43
2022/08/09 10:07:30;;;;;;;4.90;3.80;;;32.40;34.80;;;;;;5079230;28;20449;-40
2022/08/09 10:09:58;;;;;;;3.80;3.50;;;31.90;36.50;;;;;;5078546;28;20422;-41
2022/08/09 10:12:31;;;;;;;4.30;3.90;;;31.90;36.20;;;;;;5074970;28;20186;-41
2022/08/09 10:15:06;;;;;;;3.70;3.00;;;32.00;36.80;;;;;;5074946;28;20468;-42
2022/08/09 10:17:33;;;;;;;3.30;3.00;;;32.50;36.30;;;;;;5074243;28;20409;-43
2022/08/09 10:20:01;;;;;;;3.80;3.50;;;33.20;35.10;;;;;;5077750;28;20408;-40
2022/08/09 10:22:31;;;;;;;5.10;3.60;;;33.00;34.50;;;;;;5079795;28;20783;-42
2022/08/09 10:25:06;;;;;;;3.90;3.50;;;32.80;34.80;;;;;;5080049;28;20485;-40
2022/08/09 10:27:32;;;;;;;4.33;3.47;;;32.40;34.90;;;;;;5079751;28;20847;-40
2022/08/09 10:30:01;;;;;;;3.87;3.57;;;31.90;35.10;;;;;;5078482;28;20475;-41
2022/08/09 10:32:27;;;;;;;4.40;4.00;;;31.30;36.10;;;;;;5078746;28;20464;-41
2022/08/09 10:34:56;;;;;;;3.83;3.53;;;31.20;36.60;;;;;;5072940;28;20520;-41
2022/08/09 10:37:23;;;;;;;4.03;3.50;;;31.50;36.20;;;;;;5075964;28;20583;-43
2022/08/09 10:39:49;;;;;;;3.47;3.27;;;31.50;35.80;;;;;;5073185;28;20507;-42
2022/08/09 10:42:15;;;;;;;3.80;3.50;;;31.70;36.30;;;;;;5071847;28;20542;-43
2022/08/09 10:44:58;;;;;;;4.60;3.73;;;32.00;36.70;;;;;;5078646;28;20401;-41
2022/08/09 10:47:27;;;;;;;7.83;3.33;;;32.70;35.50;;;;;;5079705;28;20591;-42
2022/08/09 10:50:02;;;;;;;4.27;3.87;;;33.20;35.60;;;;;;5076107;28;20437;-42
2022/08/09 10:52:47;;;;;;;3.77;3.47;;;33.70;34.10;;;;;;5073348;28;20534;-41
2022/08/09 10:55:27;;;;;;;6.00;3.40;;;33.70;33.90;;;;;;5071877;28;20465;-42
2022/08/09 10:57:54;;;;;;;3.33;3.03;;;34.10;34.40;;;;;;5079225;28;20496;-43
2022/08/09 11:00:41;;;;;;;3.97;3.70;;;34.80;34.00;;;;;;5077154;28;20414;-43
2022/08/09 11:03:36;;;;;;;3.27;2.97;;;35.30;32.90;;;;;;5077889;28;20740;-42
2022/08/09 11:06:17;;;;;;;4.50;3.40;;;35.80;32.00;;;;;;5068491;28;20434;-42
2022/08/09 11:08:45;;;;;;;6.27;3.53;;;36.00;31.90;;;;;;5059861;28;20382;-41
2022/08/09 11:11:11;;;;;;;5.43;3.20;;;36.50;31.40;;;;;;5078829;28;20448;-43
2022/08/09 11:13:37;;;;;;;4.10;3.10;;;36.70;31.00;;;;;;5077179;28;20526;-43
2022/08/09 11:16:31;;;;;;;5.87;3.17;;;37.10;30.60;;;;;;5077891;28;20206;-41
2022/08/09 11:18:57;;;;;;;3.40;2.80;;;36.20;30.10;;;;;;5074425;28;20439;-44
2022/08/09 11:21:49;;;;;;;3.63;3.00;;;36.00;30.70;;;;;;5077381;28;20421;-42
2022/08/09 11:24:16;;;;;;;3.60;2.90;;;36.10;30.60;;;;;;5060167;28;20269;-42
2022/08/09 11:26:43;;;;;;;5.53;3.20;;;36.70;30.40;;;;;;5060292;28;20413;-43
2022/08/09 11:29:47;;;;;;;3.53;2.80;;;37.10;29.90;;;;;;5077266;28;20767;-43
2022/08/09 11:32:43;;;;;;;3.30;3.00;;;36.70;29.90;;;;;;5066171;28;20410;-44
2022/08/09 11:35:26;;;;;;;3.50;3.20;;;36.70;29.30;;;;;;5070325;28;20477;-43
2022/08/09 11:37:57;;;;;;;3.10;2.80;;;36.00;29.80;;;;;;5059912;28;20508;-43
2022/08/09 11:40:23;;;;;;;3.20;2.90;;;35.80;30.30;;;;;;5076963;28;20395;-43
2022/08/09 11:42:53;;;;;;;3.20;2.93;;;36.20;30.30;;;;;;5077254;28;20684;-42
2022/08/09 11:45:23;;;;;;;3.00;2.70;;;36.60;29.40;;;;;;5075990;28;20477;-42
2022/08/09 11:47:51;;;;;;;3.20;2.93;;;36.10;29.40;;;;;;5076341;28;20809;-43
2022/08/09 11:50:18;;;;;;;3.70;3.40;;;35.00;29.90;;;;;;5076447;28;20454;-43
2022/08/09 11:52:58;;;;;;;3.40;3.10;;;34.00;30.90;;;;;;5077061;28;20430;-43
2022/08/09 11:55:38;;;;;;;3.70;3.40;;;33.40;31.10;;;;;;5073230;28;20501;-43
2022/08/09 11:58:27;;;;;;;3.63;3.33;;;33.60;32.20;;;;;;5077881;28;20422;-43
2022/08/09 12:01:07;;;;;;;3.30;2.87;;;34.30;31.00;;;;;;5077959;28;20461;-46
2022/08/09 12:03:33;;;;;;;3.57;3.27;;;34.40;30.70;;;;;;5076845;28;20403;-42
2022/08/09 12:06:02;;;;;;;4.23;3.60;;;34.00;30.60;;;;;;5078604;28;20415;-42
2022/08/09 12:08:28;;;;;;;3.30;3.07;;;33.40;31.00;;;;;;5077187;28;20421;-43
2022/08/09 12:10:58;;;;;;;3.77;2.83;;;33.00;31.30;;;;;;5073887;28;20434;-45
2022/08/09 12:13:34;;;;;;;4.57;2.57;;;33.30;31.30;;;;;;5076613;28;20427;-41
2022/08/09 12:16:24;;;;;;;2.93;2.73;;;33.30;30.40;;;;;;5077082;28;20406;-43
2022/08/09 12:18:51;;;;;;;3.60;3.30;;;33.00;30.40;;;;;;5078360;28;20407;-42
2022/08/09 12:21:50;;;;;;;2.77;2.57;;;33.10;30.50;;;;;;5077339;28;20439;-41
2022/08/09 12:24:22;;;;;;;2.67;2.47;;;33.10;30.90;;;;;;5076566;28;20428;-43
2022/08/09 12:26:55;;;;;;;3.67;3.13;;;34.00;30.80;;;;;;5071107;28;20558;-41
2022/08/09 12:29:25;;;;;;;3.07;2.83;;;34.90;30.00;;;;;;5073824;28;20930;-43
2022/08/09 12:32:10;;;;;;;3.00;2.70;;;34.90;29.30;;;;;;5075238;28;20911;-44
2022/08/09 12:34:42;;;;;;;3.20;2.73;;;34.90;28.80;;;;;;5075848;28;20441;-44
2022/08/09 12:37:12;;;;;;;2.63;2.10;;;35.10;29.40;;;;;;5056957;28;20556;-42
2022/08/09 12:39:37;;;;;;;5.30;2.47;;;35.80;28.30;;;;;;5063836;28;20383;-44
2022/08/09 12:42:15;;;;;;;2.50;2.30;;;36.20;28.60;;;;;;5072709;28;20413;-43
2022/08/09 12:44:42;;;;;;;2.57;2.10;;;37.00;28.10;;;;;;5073557;28;20674;-42
2022/08/09 12:47:09;;;;;;;2.53;2.33;;;37.80;28.10;;;;;;5074663;28;20827;-42
2022/08/09 12:49:38;;;;;;;2.40;2.20;;;38.50;27.50;;;;;;5074703;28;20389;-43
2022/08/09 12:52:04;;;;;;;2.93;2.63;;;38.80;26.80;;;;;;5065748;28;20414;-44
2022/08/09 12:54:48;;;;;;;3.07;2.40;;;38.70;27.50;;;;;;5055417;28;21071;-43
2022/08/09 12:57:14;;;;;;;3.30;2.53;;;38.80;26.70;;;;;;5053969;28;20431;-44
2022/08/09 12:59:41;;;;;;;2.20;2.00;;;38.80;26.60;;;;;;5058632;28;20802;-43